Time;durP1;ratioP1;P1;durP2;ratioP2;P2;SDS_P1;SDS_P2;PMS_P1;PMS_P2;Temp;Humidity;BMP_temperature;BMP_pressure;BME280_temperature;BME280_humidity;BME280_pressure;Samples;Min_cycle;Max_cycle;Signal;HPM_P1;HPM_P2
2022/12/25 00:00:47;;;;;;;50.03;29.80;;;;;;;;;;4942003;29;20540;-88
2022/12/25 00:03:13;;;;;;;51.85;31.10;;;;;;;;;;4925842;29;20048;-89
2022/12/25 00:05:39;;;;;;;52.33;30.98;;;;;;;;;;4942600;29;20042;-88
2022/12/25 00:08:06;;;;;;;55.72;33.10;;;;;;;;;;4912768;29;20024;-89
2022/12/25 00:13:35;;;;;;;61.20;36.00;;;;;;;;;;4923258;29;20158;-89
2022/12/25 00:16:05;;;;;;;78.18;43.65;;;;;;;;;;4922940;29;20447;-88
2022/12/25 00:18:31;;;;;;;74.57;43.53;;;;;;;;;;4923200;29;20031;-89
2022/12/25 00:20:58;;;;;;;58.03;36.15;;;;;;;;;;4930406;29;20410;-90
2022/12/25 00:23:25;;;;;;;51.83;31.42;;;;;;;;;;4925337;29;20052;-89
2022/12/25 00:28:55;;;;;;;52.55;30.77;;;;;;;;;;4942261;29;20026;-88
2022/12/25 00:31:22;;;;;;;45.55;30.15;;;;;;;;;;4942142;29;20032;-88
2022/12/25 00:33:48;;;;;;;47.15;30.15;;;;;;;;;;4941791;29;20059;-88
2022/12/25 00:36:15;;;;;;;54.90;32.90;;;;;;;;;;4925098;29;20066;-88
2022/12/25 00:38:42;;;;;;;54.58;35.25;;;;;;;;;;4941935;29;20083;-87
2022/12/25 00:44:12;;;;;;;52.97;32.55;;;;;;;;;;4925068;29;20483;-90
2022/12/25 00:46:38;;;;;;;57.35;33.67;;;;;;;;;;4921747;29;20024;-89
2022/12/25 00:49:05;;;;;;;67.00;36.22;;;;;;;;;;4922055;29;20032;-88
2022/12/25 00:51:32;;;;;;;68.22;37.60;;;;;;;;;;4922438;29;20055;-87
2022/12/25 00:53:58;;;;;;;62.63;38.75;;;;;;;;;;4922725;29;20423;-89
2022/12/25 00:56:43;;;;;;;74.75;43.03;;;;;;;;;;4922439;29;20024;-88
2022/12/25 00:59:09;;;;;;;83.68;44.63;;;;;;;;;;4922322;29;20353;-87
2022/12/25 01:01:36;;;;;;;66.65;38.55;;;;;;;;;;4922116;29;20040;-88
2022/12/25 01:04:02;;;;;;;58.55;35.25;;;;;;;;;;4922828;29;20048;-87
2022/12/25 01:06:29;;;;;;;52.05;32.45;;;;;;;;;;4921318;29;20044;-88
2022/12/25 01:11:39;;;;;;;47.83;28.75;;;;;;;;;;4922411;29;20034;-88
2022/12/25 01:14:05;;;;;;;41.45;29.05;;;;;;;;;;4915814;29;20119;-89
2022/12/25 01:16:32;;;;;;;46.50;28.95;;;;;;;;;;4886638;29;20032;-90
2022/12/25 01:18:58;;;;;;;44.35;27.70;;;;;;;;;;4903444;29;20042;-90
2022/12/25 01:21:24;;;;;;;44.72;26.70;;;;;;;;;;4903433;29;20108;-89
2022/12/25 01:23:51;;;;;;;44.75;29.33;;;;;;;;;;4903140;29;20048;-88
2022/12/25 01:26:54;;;;;;;47.47;29.17;;;;;;;;;;4903002;29;20024;-89
2022/12/25 01:29:20;;;;;;;44.97;27.60;;;;;;;;;;4902894;29;20108;-89
2022/12/25 01:31:46;;;;;;;42.17;28.42;;;;;;;;;;4906074;29;20365;-90
2022/12/25 01:34:12;;;;;;;41.78;28.17;;;;;;;;;;4922162;29;20048;-89
2022/12/25 01:36:38;;;;;;;43.03;28.25;;;;;;;;;;4905097;29;20031;-90
2022/12/25 01:39:04;;;;;;;40.03;28.52;;;;;;;;;;4921906;29;20032;-88
2022/12/25 01:41:30;;;;;;;45.15;28.33;;;;;;;;;;4921587;29;20411;-89
2022/12/25 01:44:03;;;;;;;40.80;27.85;;;;;;;;;;4921420;29;20029;-89
2022/12/25 01:46:29;;;;;;;46.33;29.42;;;;;;;;;;4912168;29;20029;-88
2022/12/25 01:48:57;;;;;;;40.60;28.70;;;;;;;;;;4902251;29;20036;-90
2022/12/25 01:51:32;;;;;;;46.42;30.17;;;;;;;;;;4891365;29;20032;-89
2022/12/25 01:53:59;;;;;;;45.78;30.80;;;;;;;;;;4921151;29;20024;-89
2022/12/25 01:59:49;;;;;;;43.92;31.48;;;;;;;;;;4921721;29;20047;-89
2022/12/25 02:02:15;;;;;;;45.85;31.00;;;;;;;;;;4921411;29;20062;-90
2022/12/25 02:04:53;;;;;;;48.03;31.40;;;;;;;;;;4904675;29;20076;-91
2022/12/25 02:07:21;;;;;;;42.90;30.17;;;;;;;;;;4921741;29;20128;-89
2022/12/25 02:09:47;;;;;;;52.78;33.70;;;;;;;;;;4921336;29;20024;-89
2022/12/25 02:12:17;;;;;;;51.50;34.30;;;;;;;;;;4903904;29;20060;-89
2022/12/25 02:14:44;;;;;;;50.13;32.40;;;;;;;;;;4912060;29;20052;-88
2022/12/25 02:17:18;;;;;;;50.83;35.55;;;;;;;;;;4921553;29;20028;-89
2022/12/25 02:19:50;;;;;;;51.67;33.30;;;;;;;;;;4920441;29;20028;-88
2022/12/25 02:22:35;;;;;;;53.45;33.63;;;;;;;;;;4921432;29;20083;-89
2022/12/25 02:25:07;;;;;;;52.35;34.03;;;;;;;;;;4921167;29;20407;-89
2022/12/25 02:27:45;;;;;;;42.15;30.35;;;;;;;;;;4921529;29;20040;-88
2022/12/25 02:30:12;;;;;;;43.30;29.90;;;;;;;;;;4921128;29;20029;-90
2022/12/25 02:32:44;;;;;;;40.85;28.45;;;;;;;;;;4921491;29;20056;-89
2022/12/25 02:35:13;;;;;;;39.00;28.55;;;;;;;;;;4920218;29;20483;-89
2022/12/25 02:37:41;;;;;;;38.95;26.65;;;;;;;;;;4939161;29;20059;-88
2022/12/25 02:40:20;;;;;;;38.95;28.05;;;;;;;;;;4923225;29;20024;-89
2022/12/25 03:08:44;;;;;;;32.67;24.42;;;;;;;;;;4885420;29;20143;-90
2022/12/25 03:17:00;;;;;;;32.70;23.50;;;;;;;;;;4885330;29;20047;-87
2022/12/25 03:27:50;;;;;;;30.27;21.70;;;;;;;;;;4866510;29;20049;-88
2022/12/25 03:33:14;;;;;;;28.63;22.70;;;;;;;;;;4924317;29;20128;-88
2022/12/25 03:35:46;;;;;;;32.42;23.42;;;;;;;;;;4907136;29;20036;-90
2022/12/25 04:37:36;;;;;;;34.03;26.40;;;;;;;;;;4904183;29;20047;-89
2022/12/25 04:40:02;;;;;;;29.17;23.10;;;;;;;;;;4887301;29;20060;-88
2022/12/25 04:42:28;;;;;;;27.75;22.55;;;;;;;;;;4886999;29;20049;-88
2022/12/25 04:44:54;;;;;;;28.83;23.52;;;;;;;;;;4903677;29;20043;-87
2022/12/25 04:47:21;;;;;;;34.35;25.50;;;;;;;;;;4903917;29;20033;-88
2022/12/25 04:49:47;;;;;;;54.75;43.53;;;;;;;;;;4887162;29;20036;-88
2022/12/25 04:52:13;;;;;;;41.92;33.22;;;;;;;;;;4903747;29;20037;-86
2022/12/25 04:54:39;;;;;;;34.08;27.25;;;;;;;;;;4886961;29;20024;-88
2022/12/25 05:00:09;;;;;;;35.08;25.55;;;;;;;;;;4903543;29;20051;-88
2022/12/25 05:02:35;;;;;;;33.63;25.08;;;;;;;;;;4903271;29;20025;-87
2022/12/25 05:05:01;;;;;;;44.88;32.53;;;;;;;;;;4886790;29;20028;-87
2022/12/25 05:07:27;;;;;;;44.42;34.13;;;;;;;;;;4903304;29;20029;-88
2022/12/25 05:09:53;;;;;;;44.53;34.08;;;;;;;;;;4886662;29;20037;-88
2022/12/25 05:15:24;;;;;;;31.70;25.42;;;;;;;;;;4914771;29;20066;-88
2022/12/25 05:17:50;;;;;;;32.45;24.95;;;;;;;;;;4921980;29;20036;-88
2022/12/25 05:20:16;;;;;;;33.90;25.58;;;;;;;;;;4921909;29;20032;-87
2022/12/25 05:22:42;;;;;;;33.25;25.48;;;;;;;;;;4922052;29;20335;-87
2022/12/25 05:25:08;;;;;;;38.80;26.90;;;;;;;;;;4904278;29;20121;-88
2022/12/25 05:30:38;;;;;;;32.45;25.27;;;;;;;;;;4922008;29;20127;-89
2022/12/25 05:33:04;;;;;;;41.83;32.28;;;;;;;;;;4921971;29;20031;-88
2022/12/25 05:35:30;;;;;;;35.22;28.00;;;;;;;;;;4915717;29;20028;-88
2022/12/25 05:37:56;;;;;;;34.58;26.77;;;;;;;;;;4921365;29;20028;-88
2022/12/25 05:40:22;;;;;;;37.38;29.48;;;;;;;;;;4921623;29;20071;-89
2022/12/25 05:42:49;;;;;;;41.00;31.17;;;;;;;;;;4905336;29;20036;-88
2022/12/25 05:45:15;;;;;;;39.45;29.27;;;;;;;;;;4921745;29;20028;-88
2022/12/25 05:47:41;;;;;;;45.50;32.63;;;;;;;;;;4921614;29;20903;-88
2022/12/25 05:50:07;;;;;;;47.17;36.08;;;;;;;;;;4921781;29;20028;-88
2022/12/25 05:52:34;;;;;;;46.47;33.72;;;;;;;;;;4921240;29;20020;-89
2022/12/25 05:55:00;;;;;;;49.45;37.67;;;;;;;;;;4921389;29;20032;-89
2022/12/25 05:57:29;;;;;;;53.55;36.70;;;;;;;;;;4904772;29;20427;-89
2022/12/25 05:59:56;;;;;;;56.47;38.20;;;;;;;;;;4904875;29;20415;-89
2022/12/25 06:02:22;;;;;;;58.20;43.17;;;;;;;;;;4921701;29;20099;-89
2022/12/25 06:04:48;;;;;;;68.10;44.25;;;;;;;;;;4921246;29;20036;-90
2022/12/25 06:07:14;;;;;;;79.10;50.53;;;;;;;;;;4921358;29;20028;-89
2022/12/25 06:09:40;;;;;;;98.03;61.10;;;;;;;;;;4921642;29;20024;-88
2022/12/25 06:12:08;;;;;;;93.45;57.78;;;;;;;;;;4921581;29;20036;-89
2022/12/25 06:14:34;;;;;;;83.20;54.08;;;;;;;;;;4921379;29;20086;-88
2022/12/25 06:17:00;;;;;;;88.28;54.45;;;;;;;;;;4920492;29;20059;-88
2022/12/25 06:19:26;;;;;;;76.75;50.95;;;;;;;;;;4920118;29;20072;-87
2022/12/25 06:21:53;;;;;;;83.28;53.58;;;;;;;;;;4904122;29;20164;-88
2022/12/25 06:24:19;;;;;;;85.30;55.58;;;;;;;;;;4903728;29;20021;-87
2022/12/25 06:26:45;;;;;;;92.68;62.03;;;;;;;;;;4920453;29;20024;-88
2022/12/25 06:29:11;;;;;;;138.30;105.72;;;;;;;;;;4907287;29;20028;-87
2022/12/25 06:31:37;;;;;;;111.18;81.25;;;;;;;;;;4920217;29;20035;-88
2022/12/25 06:34:04;;;;;;;107.07;75.53;;;;;;;;;;4920303;29;20064;-88
2022/12/25 06:36:30;;;;;;;124.85;89.82;;;;;;;;;;4922725;29;20419;-89
2022/12/25 06:38:56;;;;;;;117.97;86.75;;;;;;;;;;4924027;29;20036;-89
2022/12/25 06:41:23;;;;;;;169.80;117.13;;;;;;;;;;4923514;29;20030;-88
2022/12/25 06:46:53;;;;;;;124.53;74.03;;;;;;;;;;4921423;29;20039;-87
2022/12/25 06:49:20;;;;;;;90.07;57.28;;;;;;;;;;4923908;29;20051;-88
2022/12/25 06:51:46;;;;;;;86.45;54.40;;;;;;;;;;4923666;29;20032;-88
2022/12/25 06:54:12;;;;;;;141.48;76.00;;;;;;;;;;4923727;29;20363;-89
2022/12/25 06:56:38;;;;;;;228.88;122.43;;;;;;;;;;4923838;29;20044;-89
2022/12/25 07:02:14;;;;;;;461.38;231.60;;;;;;;;;;4911849;29;20107;-88
2022/12/25 07:04:41;;;;;;;391.05;194.30;;;;;;;;;;4923460;29;20030;-87
2022/12/25 07:07:08;;;;;;;272.75;139.27;;;;;;;;;;4923263;29;20032;-88
2022/12/25 07:09:34;;;;;;;219.80;119.80;;;;;;;;;;4906540;29;20116;-86
2022/12/25 07:15:04;;;;;;;179.88;87.05;;;;;;;;;;4923402;29;20035;-89
2022/12/25 07:17:30;;;;;;;177.27;89.68;;;;;;;;;;4848800;29;1277163;-88
2022/12/25 07:19:56;;;;;;;214.38;116.88;;;;;;;;;;4908056;29;20042;-89
2022/12/25 07:22:22;;;;;;;260.45;155.85;;;;;;;;;;4924000;29;20028;-89
2022/12/25 07:24:48;;;;;;;224.95;137.70;;;;;;;;;;4924023;29;20068;-88
2022/12/25 07:27:25;;;;;;;170.07;106.68;;;;;;;;;;4943137;29;20119;-88
2022/12/25 07:29:51;;;;;;;161.05;92.85;;;;;;;;;;4942982;29;20024;-88
2022/12/25 07:32:17;;;;;;;183.50;101.28;;;;;;;;;;4929342;29;20029;-89
2022/12/25 07:34:43;;;;;;;180.27;98.47;;;;;;;;;;4911206;29;20419;-88
2022/12/25 07:37:10;;;;;;;209.85;106.95;;;;;;;;;;4904907;29;20442;-87
2022/12/25 07:39:36;;;;;;;304.38;150.10;;;;;;;;;;4904050;29;20036;-88
2022/12/25 07:42:02;;;;;;;373.30;181.18;;;;;;;;;;4904920;29;20032;-88
2022/12/25 07:44:28;;;;;;;372.40;175.98;;;;;;;;;;4909805;29;20115;-88
2022/12/25 07:46:54;;;;;;;340.05;165.63;;;;;;;;;;4941986;29;20032;-88
2022/12/25 07:49:20;;;;;;;369.33;192.98;;;;;;;;;;4942980;29;20023;-89
2022/12/25 07:51:46;;;;;;;382.48;199.60;;;;;;;;;;4918643;29;20040;-89
2022/12/25 07:54:12;;;;;;;301.75;156.80;;;;;;;;;;4923808;29;20404;-88
2022/12/25 07:56:38;;;;;;;188.02;103.53;;;;;;;;;;4906957;29;20035;-88
2022/12/25 07:59:36;;;;;;;142.23;73.10;;;;;;;;;;4923484;29;20076;-88
2022/12/25 08:02:03;;;;;;;133.63;64.40;;;;;;;;;;4906843;29;20043;-86
2022/12/25 08:04:29;;;;;;;148.80;73.90;;;;;;;;;;4912413;29;20462;-82
2022/12/25 08:06:55;;;;;;;146.50;76.63;;;;;;;;;;4929226;29;20115;-81
2022/12/25 08:09:21;;;;;;;219.10;114.90;;;;;;;;;;4920256;29;20025;-82
2022/12/25 08:11:47;;;;;;;308.45;159.90;;;;;;;;;;4911069;29;20039;-82
2022/12/25 08:14:13;;;;;;;404.35;215.68;;;;;;;;;;4930331;29;20036;-82
2022/12/25 08:16:40;;;;;;;377.27;209.63;;;;;;;;;;4909452;29;20408;-82
2022/12/25 08:19:07;;;;;;;337.95;191.52;;;;;;;;;;4903561;29;20064;-82
2022/12/25 08:21:34;;;;;;;281.90;158.93;;;;;;;;;;4886909;29;20032;-82
2022/12/25 08:24:01;;;;;;;262.33;153.65;;;;;;;;;;4903688;29;20416;-82
2022/12/25 08:26:27;;;;;;;354.25;192.15;;;;;;;;;;4887070;29;20041;-82
2022/12/25 08:28:53;;;;;;;429.55;226.88;;;;;;;;;;4908483;29;20056;-82
2022/12/25 08:31:19;;;;;;;418.08;208.25;;;;;;;;;;4903378;29;20356;-83
2022/12/25 08:33:46;;;;;;;455.35;198.77;;;;;;;;;;4898641;29;20033;-82
2022/12/25 08:36:12;;;;;;;500.60;205.93;;;;;;;;;;4883523;29;20327;-82
2022/12/25 08:38:39;;;;;;;221.27;115.57;;;;;;;;;;4903421;29;20024;-82
2022/12/25 08:41:06;;;;;;;164.77;93.32;;;;;;;;;;4886955;29;20039;-82
2022/12/25 08:43:50;;;;;;;118.53;69.72;;;;;;;;;;4886423;29;20052;-82
2022/12/25 08:46:16;;;;;;;99.25;61.95;;;;;;;;;;4903836;29;20037;-82
2022/12/25 08:48:43;;;;;;;113.25;66.75;;;;;;;;;;4886377;29;20041;-82
2022/12/25 08:51:13;;;;;;;142.90;74.40;;;;;;;;;;4903382;29;20076;-81
2022/12/25 08:53:40;;;;;;;159.45;79.13;;;;;;;;;;4893886;29;20052;-81
2022/12/25 08:56:06;;;;;;;116.97;64.95;;;;;;;;;;4909188;29;20096;-81
2022/12/25 08:59:10;;;;;;;112.68;62.03;;;;;;;;;;4902874;29;20040;-82
2022/12/25 09:01:36;;;;;;;106.78;61.03;;;;;;;;;;4892742;29;20324;-81
2022/12/25 09:04:02;;;;;;;89.25;57.50;;;;;;;;;;4886400;29;20041;-81
2022/12/25 09:06:29;;;;;;;87.63;57.72;;;;;;;;;;4903068;29;20167;-82
2022/12/25 09:08:55;;;;;;;95.68;60.50;;;;;;;;;;4902984;29;20503;-81
2022/12/25 09:11:21;;;;;;;93.57;61.92;;;;;;;;;;4912436;29;20040;-81
2022/12/25 09:13:47;;;;;;;85.07;57.22;;;;;;;;;;4908347;29;20420;-82
2022/12/25 09:16:15;;;;;;;92.03;59.90;;;;;;;;;;4911154;29;20052;-81
2022/12/25 09:18:41;;;;;;;189.52;105.28;;;;;;;;;;4921844;29;20038;-81
2022/12/25 09:21:09;;;;;;;160.35;91.38;;;;;;;;;;4921674;29;20075;-81
2022/12/25 09:23:36;;;;;;;162.70;92.82;;;;;;;;;;4921931;29;20099;-81
2022/12/25 09:26:03;;;;;;;181.88;99.38;;;;;;;;;;4921653;29;20036;-81
2022/12/25 09:31:32;;;;;;;235.82;117.40;;;;;;;;;;4921794;29;20035;-81
2022/12/25 09:33:58;;;;;;;249.13;121.72;;;;;;;;;;4921151;29;20021;-81
2022/12/25 09:36:24;;;;;;;270.88;139.55;;;;;;;;;;4924670;29;20083;-81
2022/12/25 09:38:51;;;;;;;303.20;156.55;;;;;;;;;;4920108;29;20126;-87
2022/12/25 09:41:34;;;;;;;287.00;142.10;;;;;;;;;;4926067;29;20042;-85
2022/12/25 09:44:19;;;;;;;219.23;110.47;;;;;;;;;;4920912;29;20028;-84
2022/12/25 09:46:51;;;;;;;163.98;87.22;;;;;;;;;;4918583;29;20423;-85
2022/12/25 09:49:23;;;;;;;145.65;81.80;;;;;;;;;;4921541;29;20032;-85
2022/12/25 09:51:58;;;;;;;143.02;78.13;;;;;;;;;;4921095;29;20124;-85
2022/12/25 09:54:33;;;;;;;158.68;84.93;;;;;;;;;;4927819;29;20043;-87
2022/12/25 09:57:00;;;;;;;152.57;88.15;;;;;;;;;;4929151;29;20041;-85
2022/12/25 09:59:26;;;;;;;130.57;76.88;;;;;;;;;;4940321;29;20046;-85
2022/12/25 10:01:52;;;;;;;136.07;70.97;;;;;;;;;;4940241;29;20514;-85
2022/12/25 10:04:36;;;;;;;144.55;73.82;;;;;;;;;;4923537;29;20063;-84
2022/12/25 10:07:23;;;;;;;146.38;74.90;;;;;;;;;;4923573;29;20328;-84
2022/12/25 10:09:52;;;;;;;133.48;68.65;;;;;;;;;;4939598;29;20063;-84
2022/12/25 10:12:25;;;;;;;135.77;70.80;;;;;;;;;;4923483;29;20050;-83
2022/12/25 10:15:05;;;;;;;121.70;70.57;;;;;;;;;;4923323;29;20051;-86
2022/12/25 10:17:44;;;;;;;79.15;50.30;;;;;;;;;;4940187;29;20052;-85
2022/12/25 10:20:18;;;;;;;70.13;41.38;;;;;;;;;;4940036;29;20047;-86
2022/12/25 10:22:46;;;;;;;68.28;40.95;;;;;;;;;;4940071;29;20043;-85
2022/12/25 10:25:17;;;;;;;67.25;39.85;;;;;;;;;;4939936;29;20119;-85
2022/12/25 10:27:44;;;;;;;83.70;46.97;;;;;;;;;;4923425;29;20020;-84
2022/12/25 10:30:14;;;;;;;72.88;42.85;;;;;;;;;;4939749;29;20024;-84
2022/12/25 10:32:41;;;;;;;64.97;39.10;;;;;;;;;;4922779;29;20031;-84
2022/12/25 10:35:10;;;;;;;77.40;42.90;;;;;;;;;;4940163;29;20442;-84
2022/12/25 10:37:36;;;;;;;88.00;51.65;;;;;;;;;;4940116;29;20111;-84
2022/12/25 10:40:03;;;;;;;63.50;38.67;;;;;;;;;;4923284;29;20114;-84
2022/12/25 10:42:40;;;;;;;42.05;26.92;;;;;;;;;;4923259;29;20027;-84
2022/12/25 10:45:08;;;;;;;41.55;27.35;;;;;;;;;;4923173;29;20027;-84
2022/12/25 10:47:36;;;;;;;37.85;25.20;;;;;;;;;;4940025;29;20031;-84
2022/12/25 10:50:08;;;;;;;42.95;28.17;;;;;;;;;;4939906;29;20020;-84
2022/12/25 10:52:34;;;;;;;39.17;27.17;;;;;;;;;;4940005;29;20028;-84
2022/12/25 10:55:10;;;;;;;36.58;23.95;;;;;;;;;;4940003;29;20030;-84
2022/12/25 10:57:44;;;;;;;39.53;28.42;;;;;;;;;;4939846;29;20042;-84
2022/12/25 11:00:23;;;;;;;52.95;29.90;;;;;;;;;;4939817;29;20457;-84
2022/12/25 11:02:49;;;;;;;78.85;37.30;;;;;;;;;;4939853;29;20027;-84
2022/12/25 11:05:32;;;;;;;77.90;36.70;;;;;;;;;;4939746;29;20403;-84
2022/12/25 11:08:00;;;;;;;65.43;32.20;;;;;;;;;;4922932;29;20067;-83
2022/12/25 11:10:33;;;;;;;63.60;30.67;;;;;;;;;;4940002;29;20028;-84
2022/12/25 11:13:00;;;;;;;71.20;34.83;;;;;;;;;;4939784;29;20031;-84
2022/12/25 11:15:35;;;;;;;72.15;40.60;;;;;;;;;;4939569;29;20028;-84
2022/12/25 11:18:03;;;;;;;80.60;47.67;;;;;;;;;;4939864;29;20028;-84
2022/12/25 11:20:29;;;;;;;97.07;52.97;;;;;;;;;;4917464;29;20029;-83
2022/12/25 11:22:55;;;;;;;71.45;39.45;;;;;;;;;;4935391;29;20020;-84
2022/12/25 11:25:24;;;;;;;57.42;32.92;;;;;;;;;;4907329;29;20072;-83
2022/12/25 11:28:01;;;;;;;48.22;27.58;;;;;;;;;;4918267;29;20035;-83
2022/12/25 11:30:29;;;;;;;35.15;19.73;;;;;;;;;;4924067;29;20032;-84
2022/12/25 11:32:58;;;;;;;35.80;16.85;;;;;;;;;;4923878;29;20036;-83
2022/12/25 11:35:27;;;;;;;28.13;12.88;;;;;;;;;;4925226;29;20047;-80
2022/12/25 11:37:53;;;;;;;24.15;11.98;;;;;;;;;;4925949;29;20031;-84
2022/12/25 11:40:38;;;;;;;27.15;12.93;;;;;;;;;;4942701;29;20099;-83
2022/12/25 11:43:32;;;;;;;29.52;14.10;;;;;;;;;;4942797;29;20027;-82
2022/12/25 11:46:08;;;;;;;13.40;5.97;;;;;;;;;;4923235;29;20027;-83
2022/12/25 11:48:36;;;;;;;16.33;7.35;;;;;;;;;;4906307;29;20032;-83
2022/12/25 11:51:03;;;;;;;16.15;10.02;;;;;;;;;;4923435;29;20434;-83
2022/12/25 11:53:42;;;;;;;14.60;7.90;;;;;;;;;;4922080;29;20486;-83
2022/12/25 11:56:09;;;;;;;37.10;18.77;;;;;;;;;;4923753;29;20056;-84
2022/12/25 11:58:54;;;;;;;34.67;15.40;;;;;;;;;;4923654;29;20035;-84
2022/12/25 12:01:39;;;;;;;20.77;9.35;;;;;;;;;;4923608;29;20154;-83
2022/12/25 12:04:07;;;;;;;17.75;8.68;;;;;;;;;;4923452;29;20075;-84
2022/12/25 12:06:52;;;;;;;13.55;5.72;;;;;;;;;;4923318;29;20020;-84
2022/12/25 12:09:37;;;;;;;12.52;6.10;;;;;;;;;;4906538;29;20024;-84
2022/12/25 12:12:08;;;;;;;13.27;6.28;;;;;;;;;;4913361;29;20024;-83
2022/12/25 12:14:36;;;;;;;17.58;8.10;;;;;;;;;;4908268;29;20044;-83
2022/12/25 12:17:02;;;;;;;13.82;5.47;;;;;;;;;;4922986;29;20093;-83
2022/12/25 12:19:29;;;;;;;17.08;6.07;;;;;;;;;;4923367;29;20326;-83
2022/12/25 12:21:59;;;;;;;11.57;5.80;;;;;;;;;;4906200;29;20412;-84
2022/12/25 12:24:29;;;;;;;18.55;6.88;;;;;;;;;;4922968;29;20411;-84
2022/12/25 12:27:06;;;;;;;10.10;6.15;;;;;;;;;;4922902;29;20021;-84
2022/12/25 12:29:43;;;;;;;13.93;7.22;;;;;;;;;;4906220;29;20036;-84
2022/12/25 12:32:39;;;;;;;15.02;7.95;;;;;;;;;;4923336;29;20044;-84
2022/12/25 12:35:09;;;;;;;10.80;4.93;;;;;;;;;;4864769;29;20057;-84
2022/12/25 12:37:37;;;;;;;12.35;6.85;;;;;;;;;;4849460;29;20069;-84
2022/12/25 12:40:04;;;;;;;13.68;6.57;;;;;;;;;;4864753;29;20038;-83
2022/12/25 12:42:39;;;;;;;12.38;5.80;;;;;;;;;;4864669;29;20034;-83
2022/12/25 12:45:09;;;;;;;14.13;7.65;;;;;;;;;;4864784;29;20045;-83
2022/12/25 12:47:40;;;;;;;14.07;8.23;;;;;;;;;;4859891;29;20038;-88
2022/12/25 12:50:07;;;;;;;13.45;7.32;;;;;;;;;;4860062;29;20030;-84
2022/12/25 12:52:35;;;;;;;9.68;5.15;;;;;;;;;;4863878;29;20070;-84
2022/12/25 12:55:03;;;;;;;13.93;7.90;;;;;;;;;;4864021;29;20033;-84
2022/12/25 12:57:33;;;;;;;17.23;8.40;;;;;;;;;;4855204;29;20430;-83
2022/12/25 13:00:20;;;;;;;22.48;9.52;;;;;;;;;;4863106;29;20117;-83
2022/12/25 13:02:46;;;;;;;21.83;11.27;;;;;;;;;;4848445;29;20442;-83
2022/12/25 13:05:17;;;;;;;18.25;9.75;;;;;;;;;;4862541;29;20048;-83
2022/12/25 13:08:11;;;;;;;18.38;8.10;;;;;;;;;;4848426;29;20037;-82
2022/12/25 13:10:40;;;;;;;15.57;8.68;;;;;;;;;;4868413;29;20432;-84
2022/12/25 13:13:33;;;;;;;10.23;6.18;;;;;;;;;;4903121;29;20400;-84
2022/12/25 13:15:59;;;;;;;;;;;;;;;;;;4901583;29;20057;-85
2022/12/25 13:18:25;;;;;;;17.17;8.07;;;;;;;;;;4886703;29;20006;-85
2022/12/25 13:20:54;;;;;;;17.17;8.63;;;;;;;;;;4901963;29;20332;-85
2022/12/25 13:23:27;;;;;;;18.75;9.45;;;;;;;;;;4902991;29;20025;-84
2022/12/25 13:25:54;;;;;;;21.33;10.32;;;;;;;;;;4903166;29;20100;-85
2022/12/25 13:28:28;;;;;;;21.88;11.32;;;;;;;;;;4903184;29;20025;-85
2022/12/25 13:31:01;;;;;;;26.80;14.98;;;;;;;;;;4915466;29;20121;-85
2022/12/25 13:33:27;;;;;;;26.27;15.40;;;;;;;;;;4905003;29;20139;-85
2022/12/25 13:35:53;;;;;;;38.00;20.60;;;;;;;;;;4904852;29;20343;-85
2022/12/25 13:38:19;;;;;;;51.05;27.67;;;;;;;;;;4904644;29;20075;-84
2022/12/25 13:43:41;;;;;;;35.10;19.60;;;;;;;;;;4921881;29;20128;-85
2022/12/25 13:46:11;;;;;;;30.73;16.23;;;;;;;;;;4920797;29;20025;-85
2022/12/25 13:48:37;;;;;;;28.75;15.90;;;;;;;;;;4904943;29;20067;-85
2022/12/25 13:51:03;;;;;;;29.00;15.73;;;;;;;;;;4921734;29;20031;-85
2022/12/25 13:53:29;;;;;;;24.33;12.88;;;;;;;;;;4921895;29;20036;-86
2022/12/25 13:55:56;;;;;;;19.92;9.60;;;;;;;;;;4921604;29;20020;-86
2022/12/25 13:58:35;;;;;;;26.27;11.98;;;;;;;;;;4921356;29;20028;-85
2022/12/25 14:01:02;;;;;;;21.10;12.18;;;;;;;;;;4921327;29;20032;-84
2022/12/25 14:03:32;;;;;;;29.10;14.35;;;;;;;;;;4921343;29;20052;-85
2022/12/25 14:05:59;;;;;;;43.78;20.35;;;;;;;;;;4904554;29;20028;-86
2022/12/25 14:08:33;;;;;;;52.83;25.23;;;;;;;;;;4921373;29;20064;-85
2022/12/25 14:11:02;;;;;;;33.47;17.50;;;;;;;;;;4921610;29;20035;-85
2022/12/25 14:13:30;;;;;;;56.40;29.92;;;;;;;;;;4921109;29;20024;-86
2022/12/25 14:15:56;;;;;;;53.70;26.25;;;;;;;;;;4916378;29;20048;-83
2022/12/25 14:18:23;;;;;;;43.65;24.00;;;;;;;;;;4898343;29;20072;-85
2022/12/25 14:21:19;;;;;;;42.00;21.88;;;;;;;;;;4901967;29;20040;-85
2022/12/25 14:23:46;;;;;;;41.90;21.52;;;;;;;;;;4878674;29;20142;-83
2022/12/25 14:26:16;;;;;;;61.42;30.13;;;;;;;;;;4884794;29;20029;-85
2022/12/25 14:28:46;;;;;;;63.38;33.17;;;;;;;;;;4900806;29;20040;-84
2022/12/25 14:31:12;;;;;;;73.47;37.17;;;;;;;;;;4900352;29;20365;-84
2022/12/25 14:33:39;;;;;;;78.30;42.17;;;;;;;;;;4884922;29;20395;-85
2022/12/25 14:36:05;;;;;;;91.35;48.58;;;;;;;;;;4900573;29;20040;-84
2022/12/25 14:38:33;;;;;;;82.50;44.05;;;;;;;;;;4885749;29;20471;-85
2022/12/25 14:40:59;;;;;;;100.80;40.90;;;;;;;;;;4898378;29;20049;-85
2022/12/25 14:46:22;;;;;;;119.10;50.78;;;;;;;;;;4900585;29;20056;-85
2022/12/25 14:48:57;;;;;;;132.88;55.80;;;;;;;;;;4884606;29;20052;-85
2022/12/25 14:51:24;;;;;;;166.85;61.25;;;;;;;;;;4900125;29;20100;-84
2022/12/25 14:53:52;;;;;;;180.32;69.60;;;;;;;;;;4899793;29;20312;-85
2022/12/25 14:56:19;;;;;;;184.40;68.45;;;;;;;;;;4901079;29;20077;-84
2022/12/25 14:58:52;;;;;;;175.30;66.10;;;;;;;;;;4887393;29;20033;-85
2022/12/25 15:01:31;;;;;;;153.85;58.05;;;;;;;;;;4924475;29;20053;-84
2022/12/25 15:04:23;;;;;;;117.25;48.20;;;;;;;;;;4907742;29;20092;-85
2022/12/25 15:06:49;;;;;;;;;;;;;;;;;;4920789;29;20028;-85
2022/12/25 15:09:17;;;;;;;65.50;32.63;;;;;;;;;;4924262;29;19923;-85
2022/12/25 15:11:47;;;;;;;60.17;32.22;;;;;;;;;;4924699;29;20091;-84
2022/12/25 15:14:13;;;;;;;74.00;38.13;;;;;;;;;;4906932;29;20047;-85
2022/12/25 15:16:45;;;;;;;79.95;40.78;;;;;;;;;;4924003;29;20131;-85
2022/12/25 15:19:12;;;;;;;87.20;46.42;;;;;;;;;;4907453;29;20474;-84
2022/12/25 15:21:38;;;;;;;90.90;48.42;;;;;;;;;;4906482;29;20139;-84
2022/12/25 15:24:04;;;;;;;84.32;45.28;;;;;;;;;;4923789;29;20068;-87
2022/12/25 15:26:31;;;;;;;63.63;37.60;;;;;;;;;;4888516;29;20073;-85
2022/12/25 15:28:58;;;;;;;64.82;34.13;;;;;;;;;;4904667;29;20357;-85
2022/12/25 15:31:28;;;;;;;63.40;35.35;;;;;;;;;;4904747;29;20446;-85
2022/12/25 15:33:55;;;;;;;64.28;35.67;;;;;;;;;;4905160;29;20029;-85
2022/12/25 15:36:22;;;;;;;69.90;37.58;;;;;;;;;;4923824;29;20114;-84
2022/12/25 15:38:49;;;;;;;59.33;32.83;;;;;;;;;;4923835;29;20036;-86
2022/12/25 15:44:12;;;;;;;47.58;27.20;;;;;;;;;;4923935;29;20075;-86
2022/12/25 15:46:38;;;;;;;45.45;26.45;;;;;;;;;;4923578;29;20426;-86
2022/12/25 15:49:05;;;;;;;48.95;28.42;;;;;;;;;;4923670;29;20021;-86
2022/12/25 15:51:31;;;;;;;53.00;30.77;;;;;;;;;;4924031;29;20032;-86
2022/12/25 15:53:58;;;;;;;57.33;33.13;;;;;;;;;;4923541;29;20035;-86
2022/12/25 15:56:25;;;;;;;72.50;38.53;;;;;;;;;;4923581;29;20044;-86
2022/12/25 15:58:51;;;;;;;78.63;43.53;;;;;;;;;;4923595;29;20039;-86
2022/12/25 16:01:18;;;;;;;98.28;48.72;;;;;;;;;;4923026;29;20095;-86
2022/12/25 16:03:44;;;;;;;110.72;53.58;;;;;;;;;;4926266;29;20020;-87
2022/12/25 16:06:15;;;;;;;91.95;49.05;;;;;;;;;;4922370;29;20076;-87
2022/12/25 16:08:41;;;;;;;96.75;46.28;;;;;;;;;;4921650;29;20029;-86
2022/12/25 16:11:07;;;;;;;105.18;46.38;;;;;;;;;;4918706;29;20415;-87
2022/12/25 16:13:34;;;;;;;99.57;43.25;;;;;;;;;;4906335;29;20040;-88
2022/12/25 16:16:00;;;;;;;83.50;36.67;;;;;;;;;;4923212;29;20075;-86
2022/12/25 16:18:26;;;;;;;51.42;26.45;;;;;;;;;;4906277;29;20506;-87
2022/12/25 16:20:53;;;;;;;56.35;31.80;;;;;;;;;;4923077;29;20022;-86
2022/12/25 16:23:20;;;;;;;80.95;45.03;;;;;;;;;;4905607;29;20344;-86
2022/12/25 16:25:46;;;;;;;75.70;46.78;;;;;;;;;;4906312;29;20039;-86
2022/12/25 16:28:12;;;;;;;79.60;44.10;;;;;;;;;;4923114;29;20020;-86
2022/12/25 16:30:39;;;;;;;76.53;44.80;;;;;;;;;;4920641;29;20047;-86
2022/12/25 16:33:05;;;;;;;75.00;42.30;;;;;;;;;;4906298;29;20032;-86
2022/12/25 16:35:31;;;;;;;73.45;42.80;;;;;;;;;;4922835;29;20028;-87
2022/12/25 16:37:57;;;;;;;77.60;43.50;;;;;;;;;;4905586;29;20148;-88
2022/12/25 16:40:24;;;;;;;76.50;41.22;;;;;;;;;;4922661;29;20032;-86
2022/12/25 16:42:50;;;;;;;70.57;40.10;;;;;;;;;;4905632;29;20111;-87
2022/12/25 16:45:28;;;;;;;64.63;38.17;;;;;;;;;;4905615;29;20435;-87
2022/12/25 16:47:55;;;;;;;66.80;40.28;;;;;;;;;;4925157;29;20031;-86
2022/12/25 16:50:21;;;;;;;98.82;60.13;;;;;;;;;;4922717;29;20021;-83
2022/12/25 16:52:47;;;;;;;89.22;49.88;;;;;;;;;;4922419;29;20107;-86